Time;durP1;ratioP1;P1;durP2;ratioP2;P2;SDS_P1;SDS_P2;PMS_P1;PMS_P2;Temp;Humidity;BMP_temperature;BMP_pressure;BME280_temperature;BME280_humidity;BME280_pressure;Samples;Min_cycle;Max_cycle;Signal;HPM_P1;HPM_P2
2023/02/11 00:02:10;;;;;;;60.73;33.67;;;;;;;5.23;88.00;102089.63;5053325;28;20209;-79
2023/02/11 00:04:38;;;;;;;55.10;32.90;;;;;;;5.26;87.82;102087.16;5053293;28;20254;-78
2023/02/11 00:07:04;;;;;;;57.83;33.40;;;;;;;5.29;87.86;102098.47;5053580;28;20205;-79
2023/02/11 00:09:31;;;;;;;60.03;33.87;;;;;;;5.30;88.00;102095.03;5053389;28;20230;-78
2023/02/11 00:11:57;;;;;;;54.60;33.30;;;;;;;5.28;88.10;102099.31;5053402;28;20736;-79
2023/02/11 00:14:24;;;;;;;58.93;32.67;;;;;;;5.30;88.14;102095.03;5053883;28;20206;-77
2023/02/11 00:16:50;;;;;;;61.20;33.47;;;;;;;5.24;88.52;102083.63;5054220;28;20210;-77
2023/02/11 00:19:16;;;;;;;54.43;31.93;;;;;;;5.21;89.20;102055.06;5053649;28;20635;-79
2023/02/11 00:21:44;;;;;;;63.53;34.17;;;;;;;5.26;88.74;102046.59;5055252;28;20203;-78
2023/02/11 00:24:10;;;;;;;58.57;32.63;;;;;;;5.22;88.77;102031.81;5051318;28;20730;-78
2023/02/11 00:26:37;;;;;;;67.07;35.20;;;;;;;5.30;88.78;102042.38;5055116;28;20230;-78
2023/02/11 00:29:05;;;;;;;63.00;33.13;;;;;;;5.27;89.20;102050.97;5053534;28;20632;-78
2023/02/11 00:31:31;;;;;;;64.60;35.17;;;;;;;5.27;88.62;102071.66;5054027;28;20601;-78
2023/02/11 00:33:58;;;;;;;52.27;29.57;;;;;;;5.26;88.95;102085.44;5054391;28;20207;-79
2023/02/11 00:36:27;;;;;;;57.57;33.27;;;;;;;5.25;89.57;102072.44;5054277;28;20625;-77
2023/02/11 00:38:56;;;;;;;59.00;33.13;;;;;;;5.24;89.60;102065.53;5054596;28;20266;-79
2023/02/11 00:41:23;;;;;;;57.43;34.07;;;;;;;5.21;90.08;102052.47;5054803;28;20342;-78
2023/02/11 00:43:51;;;;;;;63.97;34.37;;;;;;;5.31;90.00;102054.50;5053984;28;20208;-78
2023/02/11 00:46:17;;;;;;;58.80;34.20;;;;;;;5.33;89.82;102053.72;5054132;28;20200;-79
2023/02/11 00:48:44;;;;;;;54.47;32.57;;;;;;;5.29;89.79;102043.22;5054806;28;20240;-80
2023/02/11 00:51:11;;;;;;;58.13;33.47;;;;;;;5.33;89.55;102053.72;5054079;28;20278;-79
2023/02/11 00:53:37;;;;;;;62.77;35.00;;;;;;;5.26;90.22;102049.19;5050246;28;20203;-78
2023/02/11 00:56:06;;;;;;;55.17;31.93;;;;;;;5.31;90.53;102039.84;5044128;28;20203;-79
2023/02/11 00:58:32;;;;;;;68.17;35.37;;;;;;;5.29;90.95;102036.34;5034727;28;20235;-79
2023/02/11 01:00:59;;;;;;;68.80;35.53;;;;;;;5.19;91.62;102018.75;5034566;28;20619;-78
2023/02/11 01:03:25;;;;;;;64.80;36.03;;;;;;;5.26;91.94;102015.53;5034101;28;20235;-78
2023/02/11 01:05:52;;;;;;;69.50;36.93;;;;;;;5.22;91.84;102015.41;5034076;28;20209;-79
2023/02/11 01:08:18;;;;;;;67.87;38.40;;;;;;;5.16;93.22;101992.81;5034502;28;20304;-79
2023/02/11 01:10:45;;;;;;;74.20;37.60;;;;;;;5.24;93.21;101980.97;5033484;28;20237;-78
2023/02/11 01:13:12;;;;;;;68.50;39.17;;;;;;;5.22;93.52;101976.59;5033752;28;20224;-77
2023/02/11 01:15:39;;;;;;;72.00;37.47;;;;;;;5.29;93.47;101965.53;5033444;28;20208;-77
2023/02/11 01:18:06;;;;;;;68.60;37.20;;;;;;;5.36;93.21;101976.09;5032384;28;20209;-78
2023/02/11 01:20:32;;;;;;;65.73;36.90;;;;;;;5.17;93.79;101958.31;5034135;28;20622;-78
2023/02/11 01:22:59;;;;;;;66.00;37.03;;;;;;;5.23;94.92;101936.91;5033349;28;20210;-78
2023/02/11 01:25:25;;;;;;;60.33;35.73;;;;;;;5.13;94.92;101915.97;5053464;28;20717;-79
2023/02/11 01:27:51;;;;;;;67.93;37.13;;;;;;;5.19;94.73;101899.69;5053136;28;20213;-80
2023/02/11 01:30:19;;;;;;;68.93;37.73;;;;;;;5.14;95.44;101896.13;5053191;28;20774;-77
2023/02/11 01:32:46;;;;;;;73.23;38.77;;;;;;;5.15;96.28;101884.91;5053263;28;20213;-77
2023/02/11 01:35:12;;;;;;;79.30;41.67;;;;;;;5.11;97.37;101858.09;5053138;28;20211;-77
2023/02/11 01:37:38;;;;;;;80.90;40.63;;;;;;;5.11;97.78;101850.34;5052545;28;20250;-78
2023/02/11 01:40:10;;;;;;;76.30;42.80;;;;;;;5.05;98.64;101826.00;5057227;28;20280;-78
2023/02/11 01:42:37;;;;;;;69.97;39.10;;;;;;;5.13;98.17;101817.63;5056259;28;20199;-79
2023/02/11 01:45:53;;;;;;;66.70;36.83;;;;;;;5.05;99.21;101807.88;5057048;28;20682;-80
2023/02/11 01:48:24;;;;;;;74.00;40.00;;;;;;;5.20;98.42;101797.06;5059089;28;20269;-79
2023/02/11 01:50:54;;;;;;;77.27;38.63;;;;;;;5.16;98.77;101804.72;5059210;28;20725;-79
2023/02/11 01:58:53;;;;;;;64.07;37.80;;;;;;;5.18;98.45;101803.06;5059275;28;20254;-79
2023/02/11 02:01:25;;;;;;;68.80;37.27;;;;;;;5.18;98.21;101797.88;5058729;28;20205;-80
2023/02/11 02:03:56;;;;;;;75.63;40.10;;;;;;;5.08;98.73;101795.91;5059895;28;20258;-79
2023/02/11 02:06:30;;;;;;;72.40;38.70;;;;;;;5.09;99.38;101783.81;5059709;28;20678;-80
2023/02/11 02:09:03;;;;;;;70.47;38.57;;;;;;;5.06;100.00;101751.00;5059028;28;20784;-79
2023/02/11 02:11:30;;;;;;;67.57;37.90;;;;;;;5.06;100.00;101737.19;5057761;28;20761;-78
2023/02/11 02:13:56;;;;;;;74.40;39.97;;;;;;;5.11;100.00;101733.88;5057204;28;20219;-78
2023/02/11 02:16:29;;;;;;;70.60;39.30;;;;;;;5.13;100.00;101734.78;5057110;28;20294;-80
2023/02/11 02:19:10;;;;;;;70.20;39.20;;;;;;;5.11;100.00;101723.53;5056795;28;20259;-80
2023/02/11 02:22:09;;;;;;;78.40;40.73;;;;;;;5.17;100.00;101707.25;5056452;28;20274;-78
2023/02/11 02:24:56;;;;;;;70.87;38.77;;;;;;;5.02;100.00;101699.13;5053206;28;20202;-80
2023/02/11 02:27:37;;;;;;;74.57;39.00;;;;;;;5.08;100.00;101686.34;5058292;28;20213;-79
2023/02/11 02:30:48;;;;;;;82.73;42.00;;;;;;;5.06;100.00;101686.28;5058343;28;20235;-80
2023/02/11 02:33:29;;;;;;;81.83;41.63;;;;;;;5.04;100.00;101682.78;5022704;28;20202;-78
2023/02/11 02:36:06;;;;;;;72.53;41.17;;;;;;;5.08;100.00;101674.25;5058625;28;20620;-79
2023/02/11 02:38:37;;;;;;;71.30;39.93;;;;;;;5.11;100.00;101674.34;5058902;28;20230;-79
2023/02/11 02:41:08;;;;;;;74.90;41.13;;;;;;;5.08;100.00;101694.97;5058620;28;20204;-77
2023/02/11 02:43:37;;;;;;;72.67;41.20;;;;;;;5.07;100.00;101705.28;5058762;28;20214;-80
2023/02/11 02:46:12;;;;;;;75.63;40.17;;;;;;;5.14;100.00;101708.06;5058133;28;20660;-78
2023/02/11 02:48:40;;;;;;;66.83;37.80;;;;;;;5.14;100.00;101723.59;5056054;28;20230;-78
2023/02/11 02:51:18;;;;;;;73.43;39.43;;;;;;;5.14;100.00;101731.34;5055061;28;20706;-80
2023/02/11 02:53:54;;;;;;;75.60;40.37;;;;;;;5.12;100.00;101725.25;5050720;28;20235;-79
2023/02/11 02:56:31;;;;;;;70.20;38.87;;;;;;;5.17;100.00;101715.00;5056590;28;20207;-78
2023/02/11 02:59:15;;;;;;;73.10;40.37;;;;;;;5.12;100.00;101709.72;5055760;28;20232;-77
2023/02/11 03:01:50;;;;;;;78.57;41.10;;;;;;;5.11;100.00;101702.81;5056406;28;20211;-78
2023/02/11 03:04:24;;;;;;;72.97;38.63;;;;;;;5.16;100.00;101695.16;5055828;28;20205;-78
2023/02/11 03:06:58;;;;;;;69.77;39.00;;;;;;;5.19;100.00;101697.78;5056235;28;20294;-79
2023/02/11 03:09:31;;;;;;;69.47;39.40;;;;;;;5.18;100.00;101696.94;5055924;28;20258;-78
2023/02/11 03:11:58;;;;;;;78.10;41.40;;;;;;;5.16;100.00;101698.59;5056686;28;20772;-78
2023/02/11 03:14:27;;;;;;;68.67;38.20;;;;;;;5.27;100.00;101700.56;5055442;28;20217;-77
2023/02/11 03:16:55;;;;;;;68.97;37.97;;;;;;;5.16;100.00;101702.91;5055979;28;20204;-78
2023/02/11 03:19:28;;;;;;;72.20;37.90;;;;;;;5.20;100.00;101699.56;5055676;28;20235;-79
2023/02/11 03:21:56;;;;;;;73.30;39.20;;;;;;;5.14;100.00;101682.16;5055857;28;20667;-78
2023/02/11 03:24:27;;;;;;;72.03;39.20;;;;;;;5.15;100.00;101668.41;5049610;28;20563;-78
2023/02/11 03:26:57;;;;;;;67.50;37.90;;;;;;;5.18;100.00;101663.28;5056023;28;20207;-78
2023/02/11 03:29:33;;;;;;;67.50;37.63;;;;;;;5.20;100.00;101665.03;5055608;28;20246;-79
2023/02/11 03:32:08;;;;;;;73.33;37.67;;;;;;;5.24;100.00;101664.28;5056006;28;20272;-79
2023/02/11 03:34:44;;;;;;;61.63;35.67;;;;;;;5.30;100.00;101670.44;5054905;28;20212;-78
2023/02/11 03:37:16;;;;;;;65.23;37.07;;;;;;;5.17;100.00;101664.13;5056733;28;20346;-79
2023/02/11 03:39:46;;;;;;;59.83;35.73;;;;;;;5.32;100.00;101661.00;5055954;28;20660;-79
2023/02/11 03:42:15;;;;;;;68.27;36.57;;;;;;;5.25;100.00;101666.91;5056109;28;20250;-80
2023/02/11 03:44:49;;;;;;;69.10;36.93;;;;;;;5.25;100.00;101656.56;5056560;28;20449;-79
2023/02/11 03:47:19;;;;;;;66.40;36.40;;;;;;;5.35;100.00;101662.78;5055678;28;20212;-78
2023/02/11 03:49:50;;;;;;;69.47;37.60;;;;;;;5.34;100.00;101671.41;5056098;28;20418;-79
2023/02/11 03:52:18;;;;;;;64.33;36.17;;;;;;;5.28;100.00;101666.09;5056276;28;20265;-79
2023/02/11 03:54:47;;;;;;;61.20;36.70;;;;;;;5.33;100.00;101670.53;5049359;28;20255;-79
2023/02/11 03:57:13;;;;;;;69.03;37.87;;;;;;;5.23;100.00;101673.72;5056049;28;20211;-81
2023/02/11 03:59:51;;;;;;;58.03;35.13;;;;;;;5.27;100.00;101661.72;5055203;28;20296;-79
2023/02/11 04:02:17;;;;;;;63.07;36.23;;;;;;;5.21;100.00;101672.81;5054175;28;20212;-80
2023/02/11 04:04:44;;;;;;;63.80;36.33;;;;;;;5.16;100.00;101664.97;5055937;28;20232;-79
2023/02/11 04:07:12;;;;;;;63.63;35.30;;;;;;;5.20;100.00;101663.31;5055652;28;20265;-78
2023/02/11 04:09:39;;;;;;;57.53;34.03;;;;;;;5.15;100.00;101663.22;5055438;28;20274;-78
2023/02/11 04:12:05;;;;;;;65.67;35.97;;;;;;;5.14;100.00;101665.78;5054919;28;20261;-79
2023/02/11 04:14:32;;;;;;;64.33;36.33;;;;;;;5.12;100.00;101664.88;5055720;28;20208;-78
2023/02/11 04:16:58;;;;;;;64.23;35.80;;;;;;;5.17;100.00;101674.50;5054356;28;20571;-80
2023/02/11 04:19:25;;;;;;;59.97;34.27;;;;;;;5.14;100.00;101674.41;5055496;28;20227;-80
2023/02/11 04:21:51;;;;;;;57.17;33.50;;;;;;;5.15;100.00;101673.59;5054688;28;20615;-80
2023/02/11 04:24:19;;;;;;;57.90;34.50;;;;;;;5.23;100.00;101667.69;5048334;28;20213;-79
2023/02/11 04:26:45;;;;;;;60.20;35.37;;;;;;;5.22;100.00;101674.59;5055169;28;20215;-78
2023/02/11 04:29:12;;;;;;;69.53;37.23;;;;;;;5.24;100.00;101669.44;5054727;28;20645;-78
2023/02/11 04:31:38;;;;;;;64.87;35.70;;;;;;;5.17;100.00;101671.00;5054788;28;20233;-78
2023/02/11 04:34:05;;;;;;;69.57;37.57;;;;;;;5.14;100.00;101661.47;5055705;28;20207;-78
2023/02/11 04:36:31;;;;;;;66.70;36.13;;;;;;;5.11;100.00;101653.66;5055269;28;20741;-77
2023/02/11 04:38:58;;;;;;;70.43;38.37;;;;;;;5.12;100.00;101652.78;5054718;28;20796;-78
2023/02/11 04:41:25;;;;;;;70.93;36.83;;;;;;;5.09;100.00;101657.88;5055297;28;20207;-79
2023/02/11 04:43:52;;;;;;;65.57;36.73;;;;;;;5.09;100.00;101647.53;5055625;28;20204;-78
2023/02/11 04:46:18;;;;;;;60.03;37.03;;;;;;;5.07;100.00;101643.16;5055550;28;20208;-80
2023/02/11 04:48:45;;;;;;;67.63;37.37;;;;;;;5.08;100.00;101650.09;5055326;28;20232;-78
2023/02/11 04:51:11;;;;;;;67.67;37.53;;;;;;;5.05;100.00;101643.13;5054705;28;20239;-79
2023/02/11 04:53:38;;;;;;;71.80;37.57;;;;;;;5.02;100.00;101642.22;5048258;28;20205;-78
2023/02/11 04:56:04;;;;;;;75.10;38.10;;;;;;;4.95;100.00;101630.81;5056878;28;20283;-78
2023/02/11 04:58:32;;;;;;;64.83;36.27;;;;;;;5.03;100.00;101628.41;5056779;28;20707;-80
2023/02/11 05:01:05;;;;;;;65.97;36.70;;;;;;;4.96;100.00;101630.84;5056913;28;20212;-80
2023/02/11 05:03:32;;;;;;;62.20;34.77;;;;;;;5.13;100.00;101639.03;5057073;28;20210;-80
2023/02/11 05:05:58;;;;;;;56.43;35.13;;;;;;;5.13;100.00;101651.97;5056064;28;20235;-79
2023/02/11 05:08:24;;;;;;;57.67;34.33;;;;;;;5.15;100.00;101652.88;5056279;28;20225;-80
2023/02/11 05:10:51;;;;;;;55.10;34.40;;;;;;;5.19;100.00;101648.63;5056106;28;20286;-80
2023/02/11 05:13:17;;;;;;;50.20;31.63;;;;;;;5.18;100.00;101657.25;5056522;28;20231;-79
2023/02/11 05:15:45;;;;;;;47.50;31.17;;;;;;;5.14;100.00;101670.94;5060925;28;20278;-77
2023/02/11 05:18:13;;;;;;;48.27;31.83;;;;;;;5.03;100.00;101665.50;5061101;28;20748;-78
2023/02/11 05:20:40;;;;;;;46.37;31.50;;;;;;;5.02;100.00;101661.19;5059893;28;20231;-79
2023/02/11 05:23:06;;;;;;;48.10;31.47;;;;;;;5.09;100.00;101660.47;5052337;28;20281;-79
2023/02/11 05:25:33;;;;;;;46.67;31.57;;;;;;;5.04;100.00;101669.00;5047825;28;20232;-80
2023/02/11 05:28:00;;;;;;;51.20;30.60;;;;;;;5.04;100.00;101676.75;5040008;28;20213;-79
2023/02/11 05:30:27;;;;;;;47.20;30.87;;;;;;;5.00;100.00;101668.03;5040347;28;20257;-78
2023/02/11 05:32:54;;;;;;;47.20;30.40;;;;;;;5.16;100.00;101677.91;5040030;28;20237;-79
2023/02/11 05:35:21;;;;;;;42.23;28.80;;;;;;;5.25;100.00;101692.78;5039405;28;20217;-79
2023/02/11 05:37:47;;;;;;;47.40;30.17;;;;;;;5.22;100.00;101712.53;5039115;28;20202;-78
2023/02/11 05:40:14;;;;;;;42.27;29.03;;;;;;;5.13;100.00;101710.59;5039535;28;20288;-80
2023/02/11 05:42:40;;;;;;;44.23;29.53;;;;;;;5.16;100.00;101708.09;5039360;28;20204;-80
2023/02/11 05:45:07;;;;;;;41.97;29.50;;;;;;;5.16;100.00;101708.09;5039272;28;20256;-80
2023/02/11 05:47:34;;;;;;;44.83;31.43;;;;;;;5.20;100.00;101694.38;5039315;28;20217;-79
2023/02/11 05:50:01;;;;;;;44.67;30.07;;;;;;;5.19;100.00;101697.78;5039182;28;20283;-80
2023/02/11 05:52:29;;;;;;;55.27;31.93;;;;;;;5.23;100.00;101701.34;5037668;28;20225;-79
2023/02/11 05:54:55;;;;;;;45.87;29.53;;;;;;;5.33;100.00;101711.97;5052619;28;20623;-78
2023/02/11 05:57:22;;;;;;;42.23;30.83;;;;;;;5.23;100.00;101720.31;5059299;28;20206;-80
2023/02/11 05:59:48;;;;;;;43.07;30.60;;;;;;;5.25;100.00;101710.91;5059003;28;20227;-78
2023/02/11 06:02:14;;;;;;;51.67;32.27;;;;;;;5.31;100.00;101717.91;5058316;28;20737;-78
2023/02/11 06:04:41;;;;;;;56.00;32.50;;;;;;;5.37;100.00;101712.88;5058428;28;20207;-79
2023/02/11 06:07:09;;;;;;;52.07;31.47;;;;;;;5.32;100.00;101722.28;5058003;28;20679;-79
2023/02/11 06:09:38;;;;;;;48.77;32.30;;;;;;;5.28;100.00;101718.72;5058969;28;20283;-78
2023/02/11 06:12:05;;;;;;;53.70;31.73;;;;;;;5.34;100.00;101726.63;5057726;28;20720;-79
2023/02/11 06:14:32;;;;;;;48.40;31.43;;;;;;;5.41;100.00;101727.66;5057990;28;20205;-79
2023/02/11 06:16:58;;;;;;;48.83;31.40;;;;;;;5.38;100.00;101722.41;5058175;28;20208;-79
2023/02/11 06:19:25;;;;;;;47.47;32.77;;;;;;;5.39;100.00;101716.38;5058537;28;20283;-78
2023/02/11 06:21:51;;;;;;;47.30;29.97;;;;;;;5.41;100.00;101722.50;5058239;28;20209;-79
2023/02/11 06:24:19;;;;;;;46.30;30.27;;;;;;;5.37;100.00;101731.00;5058104;28;20679;-79
2023/02/11 06:26:45;;;;;;;48.43;31.50;;;;;;;5.48;100.00;101731.25;5057172;28;20209;-78
2023/02/11 06:29:12;;;;;;;45.77;31.80;;;;;;;5.50;100.00;101738.22;5057704;28;20300;-78
2023/02/11 06:31:39;;;;;;;55.27;33.03;;;;;;;5.41;100.00;101743.22;5058004;28;20256;-80
2023/02/11 06:34:06;;;;;;;52.83;33.93;;;;;;;5.41;100.00;101738.03;5057563;28;20663;-79
2023/02/11 06:36:33;;;;;;;47.87;31.30;;;;;;;5.48;100.00;101745.09;5057947;28;20263;-78
2023/02/11 06:38:59;;;;;;;59.73;31.83;;;;;;;5.47;100.00;101757.97;5057704;28;20225;-79
2023/02/11 06:41:27;;;;;;;51.73;31.93;;;;;;;5.40;100.00;101758.69;5058137;28;20205;-79
2023/02/11 06:43:54;;;;;;;54.63;34.27;;;;;;;5.41;100.00;101742.31;5058009;28;20256;-79
2023/02/11 06:46:20;;;;;;;50.93;33.33;;;;;;;5.46;100.00;101761.44;5058289;28;20267;-79
2023/02/11 06:48:47;;;;;;;49.73;31.90;;;;;;;5.54;100.00;101758.16;5056771;28;20233;-78
2023/02/11 06:51:14;;;;;;;62.30;33.93;;;;;;;5.51;100.00;101758.13;5056743;28;20667;-78
2023/02/11 06:53:42;;;;;;;55.20;34.00;;;;;;;5.58;100.00;101770.34;5057497;28;20228;-79
2023/02/11 06:56:12;;;;;;;53.70;32.87;;;;;;;5.54;100.00;101765.06;5057218;28;20200;-78
2023/02/11 06:58:40;;;;;;;62.50;34.57;;;;;;;5.55;100.00;101765.13;5057218;28;20226;-78
2023/02/11 07:01:07;;;;;;;55.97;34.60;;;;;;;5.51;100.00;101773.66;5055950;28;20560;-78
2023/02/11 07:03:35;;;;;;;54.73;33.27;;;;;;;5.59;100.00;101766.06;5058377;28;20209;-79
2023/02/11 07:06:01;;;;;;;48.90;32.40;;;;;;;5.63;100.00;101774.75;5059129;28;20690;-78
2023/02/11 07:08:28;;;;;;;55.97;33.57;;;;;;;5.57;100.00;101780.69;5058369;28;20225;-80
2023/02/11 07:10:55;;;;;;;49.83;31.60;;;;;;;5.73;100.00;101779.34;5058429;28;20209;-80
2023/02/11 07:13:21;;;;;;;54.43;32.33;;;;;;;5.72;100.00;101793.09;5058640;28;20598;-80
2023/02/11 07:15:49;;;;;;;54.30;32.30;;;;;;;5.72;100.00;101798.28;5059169;28;20204;-80
2023/02/11 07:18:16;;;;;;;65.97;35.43;;;;;;;5.64;100.00;101784.28;5059541;28;20297;-79
2023/02/11 07:20:43;;;;;;;52.00;33.33;;;;;;;5.68;100.00;101786.97;5059219;28;20259;-81
2023/02/11 07:23:09;;;;;;;59.57;34.00;;;;;;;5.72;100.00;101796.56;5059080;28;20304;-79
2023/02/11 07:25:36;;;;;;;53.33;34.00;;;;;;;5.72;100.00;101803.47;5057785;28;20235;-80
2023/02/11 07:28:03;;;;;;;49.53;33.17;;;;;;;5.60;100.00;101803.19;5058643;28;20631;-80
2023/02/11 07:30:29;;;;;;;59.50;35.10;;;;;;;5.72;100.00;101806.94;5058323;28;20226;-81
2023/02/11 07:32:57;;;;;;;55.87;34.53;;;;;;;5.76;100.00;101821.69;5058645;28;20291;-80
2023/02/11 07:35:24;;;;;;;59.57;34.20;;;;;;;5.74;100.00;101817.34;5058757;28;20552;-80
2023/02/11 07:37:50;;;;;;;53.10;32.70;;;;;;;5.69;100.00;101816.34;5058952;28;20212;-80
2023/02/11 07:40:17;;;;;;;61.57;33.73;;;;;;;5.81;100.00;101820.94;5058189;28;20283;-80
2023/02/11 07:42:43;;;;;;;62.47;32.83;;;;;;;5.77;100.00;101826.06;5058207;28;20271;-79
2023/02/11 07:45:09;;;;;;;59.93;34.33;;;;;;;5.77;100.00;101820.00;5057924;28;20217;-79
2023/02/11 07:47:37;;;;;;;54.50;33.93;;;;;;;5.78;100.00;101819.16;5057968;28;20648;-80
2023/02/11 07:50:05;;;;;;;55.30;33.83;;;;;;;5.70;100.00;101818.09;5058116;28;20287;-80
2023/02/11 07:52:32;;;;;;;54.00;34.13;;;;;;;5.77;100.00;101812.25;5058433;28;20261;-80
2023/02/11 07:54:58;;;;;;;56.97;32.97;;;;;;;5.67;100.00;101824.09;5057626;28;20632;-81
2023/02/11 07:57:25;;;;;;;57.83;34.90;;;;;;;5.80;100.00;101827.84;5057996;28;20210;-78
2023/02/11 07:59:52;;;;;;;57.37;33.80;;;;;;;5.82;100.00;101828.75;5057794;28;20236;-79
2023/02/11 08:02:19;;;;;;;56.63;35.37;;;;;;;5.86;100.00;101822.78;5057896;28;20604;-79
2023/02/11 08:04:45;;;;;;;60.50;33.20;;;;;;;5.96;100.00;101831.69;5058020;28;20236;-79
2023/02/11 08:07:15;;;;;;;59.60;33.50;;;;;;;5.85;100.00;101839.19;5058706;28;20207;-81
2023/02/11 08:09:42;;;;;;;54.40;33.43;;;;;;;5.95;100.00;101830.81;5057413;28;20737;-78
2023/02/11 08:12:08;;;;;;;47.03;29.47;;;;;;;5.84;100.00;101828.78;5055586;28;20225;-80
2023/02/11 08:14:35;;;;;;;51.20;32.50;;;;;;;6.02;100.00;101825.78;5054487;28;20198;-77
2023/02/11 08:17:01;;;;;;;51.97;32.93;;;;;;;6.05;100.00;101834.50;5054382;28;20619;-79
2023/02/11 08:19:28;;;;;;;57.23;34.33;;;;;;;5.94;100.00;101831.59;5056423;28;20719;-79
2023/02/11 08:21:55;;;;;;;60.65;40.50;;;;;;;5.94;100.00;101830.75;5054394;28;20440;-82
2023/02/11 08:24:23;;;;;;;58.37;33.43;;;;;;;6.04;100.00;101830.13;5055043;28;20235;-82
2023/02/11 08:26:49;;;;;;;55.40;32.63;;;;;;;6.07;100.00;101844.91;5049410;28;20231;-80
2023/02/11 08:29:17;;;;;;;52.40;32.50;;;;;;;6.11;100.00;101844.13;5056546;28;20718;-82
2023/02/11 08:31:45;;;;;;;56.60;32.90;;;;;;;6.13;100.00;101839.84;5056521;28;20264;-82
2023/02/11 08:34:13;;;;;;;53.20;30.70;;;;;;;6.13;100.00;101858.00;5056479;28;20282;-81
2023/02/11 08:36:42;;;;;;;58.33;33.00;;;;;;;6.04;100.00;101868.16;5055935;28;20288;-80
2023/02/11 08:39:13;;;;;;;57.87;32.80;;;;;;;6.06;100.00;101854.38;5056622;28;20237;-82
2023/02/11 08:41:41;;;;;;;59.00;33.40;;;;;;;6.03;100.00;101858.63;5055805;28;20212;-81
2023/02/11 08:44:07;;;;;;;53.13;32.23;;;;;;;6.11;100.00;101865.72;5057478;28;20205;-82
2023/02/11 08:46:33;;;;;;;62.83;33.67;;;;;;;6.12;100.00;101876.97;5057330;28;20209;-82
2023/02/11 08:49:00;;;;;;;65.50;35.53;;;;;;;6.19;100.00;101889.25;5056321;28;20237;-80
2023/02/11 08:51:29;;;;;;;59.00;33.60;;;;;;;6.20;100.00;101874.56;5057368;28;20244;-80
2023/02/11 08:53:55;;;;;;;61.70;36.50;;;;;;;6.22;100.00;101891.88;5054887;28;20618;-80
2023/02/11 08:56:23;;;;;;;48.70;32.17;;;;;;;6.18;100.00;101892.66;5056400;28;20213;-81
2023/02/11 08:58:52;;;;;;;50.93;32.87;;;;;;;6.22;100.00;101883.25;5048184;28;20226;-79
2023/02/11 09:01:20;;;;;;;52.03;33.73;;;;;;;6.18;100.00;101879.69;5026442;28;20627;-81
2023/02/11 09:03:47;;;;;;;55.80;32.37;;;;;;;6.12;100.00;101885.63;5030241;28;20202;-82
2023/02/11 09:06:16;;;;;;;68.33;34.67;;;;;;;6.19;100.00;101863.31;5027675;28;20202;-81
2023/02/11 09:08:47;;;;;;;51.53;32.03;;;;;;;6.23;100.00;101864.25;5027216;28;20229;-80
2023/02/11 09:11:15;;;;;;;55.37;33.73;;;;;;;6.20;100.00;101874.56;5025507;28;20727;-82
2023/02/11 09:13:43;;;;;;;57.80;34.63;;;;;;;6.28;100.00;101873.00;5026821;28;20305;-79
2023/02/11 09:16:17;;;;;;;54.40;32.23;;;;;;;6.25;100.00;101886.78;5026934;28;20202;-79
2023/02/11 09:18:44;;;;;;;56.63;32.97;;;;;;;6.22;100.00;101878.91;5025588;28;20280;-80
2023/02/11 09:21:11;;;;;;;54.33;31.43;;;;;;;6.24;100.00;101891.94;5026671;28;20298;-80
2023/02/11 09:23:40;;;;;;;49.07;31.03;;;;;;;6.23;100.00;101893.66;5031869;28;20615;-81
2023/02/11 09:26:07;;;;;;;55.33;32.17;;;;;;;6.28;100.00;101898.94;5026471;28;20215;-81
2023/02/11 09:28:33;;;;;;;51.07;30.63;;;;;;;6.24;100.00;101904.88;5026358;28;20283;-82
2023/02/11 09:31:05;;;;;;;52.80;31.47;;;;;;;6.38;100.00;101907.78;5027601;28;20609;-82
2023/02/11 09:33:33;;;;;;;59.37;31.47;;;;;;;6.41;100.00;101923.44;5027297;28;20225;-79
2023/02/11 09:36:00;;;;;;;52.20;31.13;;;;;;;6.42;100.00;101941.63;5027783;28;20671;-79
2023/02/11 09:38:26;;;;;;;58.13;30.93;;;;;;;6.43;100.00;101934.72;5027209;28;20260;-83
2023/02/11 09:40:53;;;;;;;48.30;30.73;;;;;;;6.51;100.00;101928.84;5027407;28;20513;-82
2023/02/11 09:43:22;;;;;;;46.20;29.97;;;;;;;6.50;100.00;101932.31;5026937;28;20694;-82
2023/02/11 09:45:49;;;;;;;55.80;30.73;;;;;;;6.53;100.00;101945.31;5026774;28;20212;-81
2023/02/11 09:48:18;;;;;;;54.10;31.57;;;;;;;6.62;100.00;101946.34;5026528;28;20226;-82
2023/02/11 09:50:50;;;;;;;48.80;30.27;;;;;;;6.60;100.00;101964.50;5026789;28;20236;-82
2023/02/11 09:53:23;;;;;;;50.63;29.57;;;;;;;6.68;100.00;101973.34;5027166;28;20234;-81
2023/02/11 09:55:54;;;;;;;48.10;29.13;;;;;;;6.72;100.00;101993.31;5026690;28;20632;-81
2023/02/11 09:58:26;;;;;;;54.23;29.00;;;;;;;6.61;100.00;101989.59;5026558;28;20229;-80
2023/02/11 10:01:01;;;;;;;48.50;30.63;;;;;;;6.69;100.00;101994.97;5029572;28;20614;-83
2023/02/11 10:03:50;;;;;;;55.40;30.60;;;;;;;6.64;100.00;102007.84;5029721;28;20975;-81
2023/02/11 10:06:36;;;;;;;53.30;30.77;;;;;;;6.62;100.00;101985.28;5030930;28;20226;-81
2023/02/11 10:09:18;;;;;;;50.37;30.00;;;;;;;6.71;100.00;101978.56;5030662;28;20225;-80
2023/02/11 10:11:53;;;;;;;51.87;30.27;;;;;;;6.79;100.00;101970.09;5029396;28;20929;-81
2023/02/11 10:14:32;;;;;;;52.23;32.53;;;;;;;6.69;100.00;101998.41;5030073;28;20229;-80
2023/02/11 10:17:12;;;;;;;50.23;30.77;;;;;;;6.68;100.00;102001.88;5029695;28;20202;-84
2023/02/11 10:19:51;;;;;;;54.40;30.33;;;;;;;6.85;100.00;102006.56;5029514;28;20792;-82
2023/02/11 10:22:23;;;;;;;56.53;30.87;;;;;;;6.99;100.00;102010.31;5030637;28;20222;-82
2023/02/11 10:24:53;;;;;;;45.47;29.17;;;;;;;6.86;100.00;102011.78;5029690;28;20256;-81
2023/02/11 10:27:24;;;;;;;44.87;29.70;;;;;;;6.95;100.00;102011.09;5028879;28;20210;-81
2023/02/11 10:29:55;;;;;;;47.90;30.17;;;;;;;6.80;100.00;102005.56;5029585;28;20252;-78
2023/02/11 10:32:29;;;;;;;43.67;28.73;;;;;;;6.90;100.00;102000.63;5029264;28;20292;-81
2023/02/11 10:35:01;;;;;;;49.63;28.83;;;;;;;7.02;100.00;101992.22;5029240;28;20750;-82
2023/02/11 10:37:29;;;;;;;45.67;28.33;;;;;;;6.91;100.00;102001.50;5029147;28;20206;-81
2023/02/11 10:39:56;;;;;;;49.93;29.60;;;;;;;7.09;100.00;101998.41;5028792;28;20812;-82
2023/02/11 10:42:22;;;;;;;39.47;27.43;;;;;;;6.95;100.00;102009.38;5030191;28;20356;-81
2023/02/11 10:44:57;;;;;;;56.53;30.53;;;;;;;6.80;100.00;101975.31;5029140;28;20210;-81
2023/02/11 10:47:27;;;;;;;53.77;31.27;;;;;;;6.88;100.00;101965.09;5029741;28;20654;-80
2023/02/11 10:49:54;;;;;;;49.93;30.03;;;;;;;6.95;100.00;101952.25;5029562;28;20711;-82
2023/02/11 10:52:22;;;;;;;54.83;30.30;;;;;;;7.07;100.00;101956.81;5029589;28;20268;-81
2023/02/11 10:55:16;;;;;;;46.53;30.10;;;;;;;7.09;100.00;101964.66;5030002;28;20210;-81
2023/02/11 10:57:50;;;;;;;50.13;29.83;;;;;;;7.14;100.00;101978.59;5027021;28;20275;-79
2023/02/11 11:00:35;;;;;;;50.20;29.70;;;;;;;7.27;100.00;101984.91;5029632;28;20273;-80
2023/02/11 11:03:03;;;;;;;50.77;29.30;;;;;;;7.07;100.00;101966.34;5029331;28;20237;-82
2023/02/11 11:05:32;;;;;;;48.57;29.57;;;;;;;7.05;100.00;101958.50;5029648;28;20210;-81
2023/02/11 11:08:01;;;;;;;47.43;28.67;;;;;;;7.10;100.00;101951.69;5029571;28;20485;-81
2023/02/11 11:10:41;;;;;;;47.97;26.90;;;;;;;7.08;100.00;101935.22;5029090;28;20248;-83
2023/02/11 11:13:24;;;;;;;53.87;28.37;;;;;;;7.14;100.00;101931.88;5028794;28;20703;-80
2023/02/11 11:16:15;;;;;;;40.03;27.53;;;;;;;6.98;100.00;101943.66;5029203;28;20759;-80
2023/02/11 11:18:43;;;;;;;43.60;26.87;;;;;;;7.00;100.00;101936.78;5029412;28;20226;-80
2023/02/11 11:21:15;;;;;;;42.73;27.80;;;;;;;7.09;100.00;101943.88;5029069;28;20664;-79
2023/02/11 11:23:49;;;;;;;40.57;26.80;;;;;;;7.03;100.00;101944.63;5028347;28;20209;-80
2023/02/11 11:26:17;;;;;;;41.83;26.30;;;;;;;6.97;100.00;101932.38;5029817;28;20210;-81
2023/02/11 11:28:53;;;;;;;41.80;26.67;;;;;;;6.95;100.00;101941.00;5028412;28;20252;-81